TimePST,TemperatureF,Dew PointF,Humidity,Sea Level PressureIn,VisibilityMPH,Wind Direction,Wind SpeedMPH,Gust SpeedMPH,PrecipitationIn,Events,Conditions,WindDirDegrees,DateUTC
12:53 AM,7.0,1.0,77,29.84,10.0,WNW,5.8,-,N/A,,Scattered Clouds,290,2013-01-11 08:53:00
1:53 AM,9.0,1.9,73,29.84,10.0,WNW,4.6,-,N/A,,Overcast,300,2013-01-11 09:53:00
2:53 AM,7.0,1.0,77,29.86,10.0,West,6.9,-,N/A,,Overcast,270,2013-01-11 10:53:00
3:53 AM,7.0,1.9,80,29.87,10.0,West,9.2,-,N/A,,Mostly Cloudy,260,2013-01-11 11:53:00
4:53 AM,10.0,3.0,73,29.88,10.0,West,5.8,-,N/A,,Overcast,280,2013-01-11 12:53:00
5:53 AM,12.0,5.0,73,29.92,10.0,Calm,Calm,-,N/A,,Overcast,0,2013-01-11 13:53:00
6:53 AM,12.0,5.0,73,29.94,10.0,South,3.5,-,N/A,,Overcast,170,2013-01-11 14:53:00
7:53 AM,12.0,5.0,73,29.96,10.0,WSW,6.9,-,N/A,,Overcast,250,2013-01-11 15:53:00
8:08 AM,12.2,6.8,79,29.81,3.0,Variable,3.5,-,0.00,Snow,Light Snow,0,2013-01-11 16:08:00
8:18 AM,12.2,6.8,79,29.81,9.0,Calm,Calm,-,0.00,,Overcast,0,2013-01-11 16:18:00
8:53 AM,14.0,6.1,71,29.97,10.0,Calm,Calm,-,0.00,,Overcast,0,2013-01-11 16:53:00
9:53 AM,15.1,5.0,64,30.00,10.0,Calm,Calm,-,N/A,,Overcast,0,2013-01-11 17:53:00
10:53 AM,17.1,5.0,59,29.98,10.0,NNW,5.8,-,N/A,,Overcast,340,2013-01-11 18:53:00
11:53 AM,17.6,5.0,58,29.81,8.0,NW,9.2,-,N/A,Snow,Light Snow,320,2013-01-11 19:53:00
12:53 PM,17.1,8.1,68,29.99,6.0,West,9.2,19.6,0.01,Snow,Light Snow,280,2013-01-11 20:53:00
1:53 PM,16.0,6.1,65,29.99,10.0,WNW,11.5,-,0.00,,Mostly Cloudy,290,2013-01-11 21:53:00
2:53 PM,17.1,8.1,68,30.02,10.0,North,8.1,-,0.00,,Overcast,360,2013-01-11 22:53:00
3:03 PM,15.8,8.6,73,29.84,1.8,North,9.2,19.6,0.00,Snow,Light Snow,360,2013-01-11 23:03:00
3:13 PM,17.6,8.6,68,29.84,3.0,NE,5.8,-,0.00,Snow,Light Snow,50,2013-01-11 23:13:00
3:48 PM,15.8,8.6,73,29.85,4.0,NNW,5.8,-,0.00,Snow,Light Snow,330,2013-01-11 23:48:00
3:53 PM,15.1,9.0,77,30.04,3.0,North,5.8,-,0.00,Snow,Light Snow,350,2013-01-11 23:53:00
4:03 PM,12.2,8.6,85,29.85,7.0,North,6.9,-,0.00,Snow,Light Snow,360,2013-01-12 00:03:00
4:53 PM,5.0,-0.0,80,30.08,10.0,WSW,5.8,-,0.00,,Partly Cloudy,250,2013-01-12 00:53:00
5:53 PM,-0.0,-4.0,83,30.11,10.0,West,9.2,-,N/A,,Partly Cloudy,260,2013-01-12 01:53:00
6:53 PM,-5.1,-9.0,83,30.14,10.0,SSE,6.9,-,N/A,,Clear,160,2013-01-12 02:53:00
7:53 PM,-6.0,-11.0,79,30.16,10.0,SE,4.6,-,N/A,,Clear,140,2013-01-12 03:53:00
8:53 PM,-11.0,-16.1,78,30.17,10.0,SE,4.6,-,N/A,,Clear,140,2013-01-12 04:53:00
9:53 PM,-8.0,-11.9,83,30.16,10.0,South,10.4,-,N/A,,Clear,170,2013-01-12 05:53:00
10:53 PM,-9.9,-14.1,82,30.17,10.0,South,15.0,-,N/A,,Clear,170,2013-01-12 06:53:00
11:53 PM,-11.9,-17.0,78,30.18,10.0,South,13.8,-,N/A,,Clear,170,2013-01-12 07:53:00